Time;durP1;ratioP1;P1;durP2;ratioP2;P2;SDS_P1;SDS_P2;PMS_P1;PMS_P2;Temp;Humidity;BMP_temperature;BMP_pressure;BME280_temperature;BME280_humidity;BME280_pressure;Samples;Min_cycle;Max_cycle;Signal;HPM_P1;HPM_P2
2021/06/24 00:00:17;;;;;;;23.73;13.57;;;;;;;;;;5117152;28;20445;-56
2021/06/24 00:02:45;;;;;;;17.43;12.70;;;;;;;;;;5104233;28;20452;-51
2021/06/24 00:05:20;;;;;;;18.90;13.53;;;;;;;;;;5117272;28;20455;-56
2021/06/24 00:07:47;;;;;;;19.77;12.77;;;;;;;;;;5116880;28;20454;-61
2021/06/24 00:10:14;;;;;;;25.83;12.87;;;;;;;;;;5116419;28;20451;-54
2021/06/24 00:12:57;;;;;;;18.53;13.83;;;;;;;;;;5117358;28;20495;-57
2021/06/24 00:15:26;;;;;;;19.93;12.10;;;;;;;;;;5108430;28;20606;-53
2021/06/24 00:17:53;;;;;;;19.00;12.20;;;;;;;;;;5116419;28;20756;-56
2021/06/24 00:20:20;;;;;;;16.20;12.10;;;;;;;;;;5102045;28;20443;-59
2021/06/24 00:22:48;;;;;;;18.97;13.93;;;;;;;;;;5117076;28;20475;-57
2021/06/24 00:25:26;;;;;;;15.57;11.20;;;;;;;;;;5116749;28;20431;-60
2021/06/24 00:27:53;;;;;;;19.63;12.50;;;;;;;;;;5116760;28;20443;-51
2021/06/24 00:30:21;;;;;;;15.63;12.60;;;;;;;;;;5116634;28;20455;-54
2021/06/24 00:35:53;;;;;;;21.93;11.57;;;;;;;;;;5107445;28;20450;-58
2021/06/24 00:38:21;;;;;;;19.03;12.30;;;;;;;;;;5116762;28;20456;-58
2021/06/24 00:43:51;;;;;;;17.40;12.40;;;;;;;;;;5093566;28;20478;-54
2021/06/24 00:46:19;;;;;;;16.13;11.90;;;;;;;;;;5096482;28;20521;-55
2021/06/24 00:51:51;;;;;;;16.37;10.60;;;;;;;;;;5105736;28;20485;-57
2021/06/24 00:54:18;;;;;;;16.47;11.30;;;;;;;;;;5115996;28;20531;-59
2021/06/24 00:56:46;;;;;;;17.70;11.03;;;;;;;;;;5118343;28;20496;-53
2021/06/24 00:59:14;;;;;;;16.90;11.43;;;;;;;;;;5098111;28;20439;-56
2021/06/24 01:01:41;;;;;;;14.57;11.70;;;;;;;;;;5115992;28;20501;-60
2021/06/24 01:04:10;;;;;;;16.93;11.23;;;;;;;;;;5115779;28;20455;-51
2021/06/24 01:06:37;;;;;;;16.70;11.70;;;;;;;;;;5115951;28;20518;-57
2021/06/24 01:09:06;;;;;;;18.13;12.07;;;;;;;;;;5115879;28;20665;-56
2021/06/24 01:11:34;;;;;;;16.00;11.63;;;;;;;;;;5109689;28;20463;-57
2021/06/24 01:14:01;;;;;;;20.00;10.97;;;;;;;;;;5117477;28;20496;-58
2021/06/24 01:16:28;;;;;;;16.43;11.97;;;;;;;;;;5112107;28;20507;-53
2021/06/24 01:19:02;;;;;;;18.97;11.73;;;;;;;;;;5116140;28;20462;-54
2021/06/24 01:21:29;;;;;;;23.00;13.33;;;;;;;;;;5116055;28;20503;-59
2021/06/24 01:23:58;;;;;;;17.10;11.00;;;;;;;;;;5115881;28;20451;-55
2021/06/24 01:26:25;;;;;;;15.90;11.50;;;;;;;;;;5108483;28;20464;-57
2021/06/24 01:28:53;;;;;;;19.10;11.60;;;;;;;;;;5096384;28;20452;-55
2021/06/24 01:31:21;;;;;;;19.73;12.03;;;;;;;;;;5102599;28;20542;-56
2021/06/24 01:33:51;;;;;;;14.20;10.10;;;;;;;;;;5115549;28;20463;-56
2021/06/24 01:36:18;;;;;;;14.47;11.30;;;;;;;;;;5115710;28;20447;-57
2021/06/24 01:38:46;;;;;;;17.77;11.87;;;;;;;;;;5115725;28;20522;-58
2021/06/24 01:41:24;;;;;;;17.20;12.83;;;;;;;;;;5116778;28;20465;-55
2021/06/24 01:43:52;;;;;;;16.50;12.00;;;;;;;;;;5116068;28;20743;-55
2021/06/24 01:46:20;;;;;;;17.37;12.33;;;;;;;;;;5115674;28;20465;-56
2021/06/24 01:48:58;;;;;;;18.23;12.30;;;;;;;;;;5115947;28;20471;-54
2021/06/24 01:51:25;;;;;;;13.63;11.57;;;;;;;;;;5103149;28;20503;-55
2021/06/24 01:53:53;;;;;;;16.40;11.40;;;;;;;;;;5095427;28;20547;-54
2021/06/24 01:56:22;;;;;;;16.57;12.57;;;;;;;;;;5095881;28;20448;-53
2021/06/24 01:58:50;;;;;;;25.57;13.63;;;;;;;;;;5110252;28;20436;-57
2021/06/24 02:01:17;;;;;;;22.63;12.60;;;;;;;;;;5116702;28;20435;-55
2021/06/24 02:03:58;;;;;;;16.83;13.30;;;;;;;;;;5116611;28;20467;-56
2021/06/24 02:06:25;;;;;;;22.47;13.40;;;;;;;;;;5097297;28;20480;-56
2021/06/24 02:08:53;;;;;;;17.50;12.77;;;;;;;;;;5095735;28;20512;-59
2021/06/24 02:14:25;;;;;;;15.20;13.20;;;;;;;;;;5093394;28;20548;-56
2021/06/24 02:16:53;;;;;;;17.90;14.00;;;;;;;;;;5095540;28;20464;-57
2021/06/24 02:19:20;;;;;;;20.93;14.30;;;;;;;;;;5098721;28;20452;-55
2021/06/24 02:21:48;;;;;;;21.53;14.67;;;;;;;;;;5098000;28;20460;-51
2021/06/24 02:24:16;;;;;;;16.30;13.63;;;;;;;;;;5099050;28;20486;-53
2021/06/24 02:26:43;;;;;;;15.50;13.83;;;;;;;;;;5104931;28;20454;-56
2021/06/24 02:29:11;;;;;;;14.53;12.80;;;;;;;;;;5099274;28;20462;-55
2021/06/24 02:32:15;;;;;;;14.10;12.10;;;;;;;;;;5098494;28;20497;-61
2021/06/24 02:34:44;;;;;;;17.03;12.93;;;;;;;;;;5096569;28;20488;-57
2021/06/24 02:37:11;;;;;;;17.10;12.47;;;;;;;;;;5098736;28;20456;-58
2021/06/24 02:39:44;;;;;;;18.60;13.30;;;;;;;;;;5098706;28;20476;-56
2021/06/24 02:42:13;;;;;;;22.23;13.13;;;;;;;;;;5081945;28;20492;-58
2021/06/24 02:44:42;;;;;;;14.67;12.33;;;;;;;;;;5078244;28;20425;-55
2021/06/24 02:47:10;;;;;;;17.83;12.83;;;;;;;;;;5078542;28;20464;-57
2021/06/24 02:49:37;;;;;;;15.27;12.80;;;;;;;;;;5078673;28;20524;-59
2021/06/24 02:52:06;;;;;;;18.50;13.37;;;;;;;;;;5067877;28;20446;-57
2021/06/24 02:54:53;;;;;;;15.37;13.17;;;;;;;;;;5058148;28;20473;-53
2021/06/24 02:57:20;;;;;;;19.67;13.00;;;;;;;;;;5057341;28;20472;-59
2021/06/24 02:59:48;;;;;;;20.70;12.60;;;;;;;;;;5058510;28;20473;-60
2021/06/24 03:05:19;;;;;;;21.97;12.90;;;;;;;;;;5107571;28;20458;-56
2021/06/24 03:07:48;;;;;;;18.10;13.03;;;;;;;;;;5098280;28;20458;-58
2021/06/24 03:13:19;;;;;;;22.40;12.80;;;;;;;;;;5112480;28;20521;-59
2021/06/24 03:15:47;;;;;;;21.67;13.63;;;;;;;;;;5118243;28;20657;-55
2021/06/24 03:18:14;;;;;;;15.07;13.17;;;;;;;;;;5117752;28;20752;-55
2021/06/24 03:20:43;;;;;;;21.57;13.50;;;;;;;;;;5117977;28;20436;-55
2021/06/24 03:23:23;;;;;;;24.60;15.50;;;;;;;;;;5117643;28;20519;-57
2021/06/24 03:25:52;;;;;;;22.57;15.87;;;;;;;;;;5118397;28;20447;-52
2021/06/24 03:28:19;;;;;;;19.87;16.00;;;;;;;;;;5118018;28;20447;-57
2021/06/24 03:30:52;;;;;;;25.27;15.83;;;;;;;;;;5118126;28;20431;-56
2021/06/24 03:33:19;;;;;;;21.27;16.50;;;;;;;;;;5117388;28;20497;-57
2021/06/24 03:35:51;;;;;;;18.77;13.73;;;;;;;;;;5118396;28;20482;-63
2021/06/24 03:41:25;;;;;;;23.40;15.87;;;;;;;;;;5115622;28;20493;-55
2021/06/24 03:43:53;;;;;;;21.37;17.00;;;;;;;;;;5117845;28;20451;-55
2021/06/24 03:46:39;;;;;;;22.67;17.17;;;;;;;;;;5117366;28;20475;-56
2021/06/24 03:49:07;;;;;;;27.40;18.40;;;;;;;;;;5112425;28;20489;-57
2021/06/24 03:51:45;;;;;;;19.50;17.30;;;;;;;;;;5117747;28;20449;-56
2021/06/24 03:54:43;;;;;;;21.17;17.20;;;;;;;;;;5117212;28;20483;-54
2021/06/24 03:57:12;;;;;;;19.40;15.87;;;;;;;;;;5117266;28;20444;-58
2021/06/24 03:59:39;;;;;;;22.07;17.97;;;;;;;;;;5096814;28;20474;-56
2021/06/24 04:02:22;;;;;;;20.73;17.70;;;;;;;;;;5096837;28;20461;-58
2021/06/24 04:04:50;;;;;;;22.33;17.60;;;;;;;;;;5097100;28;20441;-57
2021/06/24 04:07:19;;;;;;;25.90;19.20;;;;;;;;;;5096944;28;20456;-48
2021/06/24 04:09:47;;;;;;;26.33;19.77;;;;;;;;;;5079714;28;20440;-56
2021/06/24 04:12:19;;;;;;;24.50;18.57;;;;;;;;;;5096434;28;20458;-58
2021/06/24 04:14:46;;;;;;;23.00;19.27;;;;;;;;;;5109956;28;20499;-55
2021/06/24 04:17:33;;;;;;;25.00;17.60;;;;;;;;;;5114541;28;20447;-60
2021/06/24 04:20:12;;;;;;;25.10;18.70;;;;;;;;;;5094631;28;20471;-60
2021/06/24 04:22:42;;;;;;;26.57;17.87;;;;;;;;;;5096239;28;20460;-59
2021/06/24 04:25:10;;;;;;;26.37;16.80;;;;;;;;;;5095981;28;20471;-59
2021/06/24 04:27:40;;;;;;;25.23;16.23;;;;;;;;;;5097438;28;20480;-60
2021/06/24 04:30:29;;;;;;;17.93;15.57;;;;;;;;;;5101292;28;20472;-58
2021/06/24 04:32:56;;;;;;;22.53;17.43;;;;;;;;;;5096479;28;20448;-53
2021/06/24 04:35:25;;;;;;;21.97;15.70;;;;;;;;;;5096342;28;20514;-57
2021/06/24 04:38:12;;;;;;;20.17;16.37;;;;;;;;;;5096200;28;20516;-55
2021/06/24 04:40:39;;;;;;;19.77;17.27;;;;;;;;;;5076080;28;20487;-52
2021/06/24 04:43:10;;;;;;;20.50;15.63;;;;;;;;;;5083938;28;20424;-55
2021/06/24 04:45:44;;;;;;;23.80;17.43;;;;;;;;;;5096006;28;20794;-59
2021/06/24 04:48:11;;;;;;;20.30;15.90;;;;;;;;;;5096124;28;20440;-54
2021/06/24 04:50:38;;;;;;;22.93;16.10;;;;;;;;;;5096644;28;20452;-58
2021/06/24 04:53:07;;;;;;;22.40;17.57;;;;;;;;;;5096377;28;20607;-56
2021/06/24 04:55:39;;;;;;;20.70;17.60;;;;;;;;;;5095860;28;20484;-58
2021/06/24 04:58:13;;;;;;;20.23;16.97;;;;;;;;;;5095803;28;20429;-52
2021/06/24 05:00:46;;;;;;;21.40;18.20;;;;;;;;;;5095884;28;20459;-59
2021/06/24 05:03:15;;;;;;;21.33;17.90;;;;;;;;;;5095843;28;20450;-58
2021/06/24 05:05:53;;;;;;;27.00;18.10;;;;;;;;;;5095945;28;20462;-60
2021/06/24 05:08:34;;;;;;;25.37;17.40;;;;;;;;;;5094291;28;20523;-62
2021/06/24 05:11:02;;;;;;;20.60;17.30;;;;;;;;;;5107776;28;20511;-53
2021/06/24 05:13:31;;;;;;;23.27;17.57;;;;;;;;;;5110800;28;20457;-60
2021/06/24 05:16:14;;;;;;;21.43;17.90;;;;;;;;;;5116005;28;20458;-54
2021/06/24 05:18:42;;;;;;;19.50;17.50;;;;;;;;;;5116156;28;20447;-57
2021/06/24 05:21:19;;;;;;;22.33;17.50;;;;;;;;;;5098189;28;20444;-57
2021/06/24 05:23:56;;;;;;;21.67;18.60;;;;;;;;;;5115782;28;20442;-55
2021/06/24 05:26:24;;;;;;;23.67;16.53;;;;;;;;;;5111782;28;20455;-63
2021/06/24 05:28:57;;;;;;;23.97;18.23;;;;;;;;;;5113932;28;20473;-60
2021/06/24 05:31:25;;;;;;;27.60;17.90;;;;;;;;;;5098288;28;20443;-57
2021/06/24 05:33:55;;;;;;;21.43;15.97;;;;;;;;;;5114974;28;20455;-59
2021/06/24 05:36:31;;;;;;;22.00;17.50;;;;;;;;;;5095105;28;20420;-58
2021/06/24 05:39:18;;;;;;;20.13;16.73;;;;;;;;;;5094883;28;20404;-57
2021/06/24 05:42:02;;;;;;;23.33;19.20;;;;;;;;;;5095181;28;20448;-60
2021/06/24 05:44:49;;;;;;;23.57;18.73;;;;;;;;;;5100131;28;20439;-61
2021/06/24 05:47:30;;;;;;;23.10;17.90;;;;;;;;;;5112069;28;20456;-63
2021/06/24 05:49:58;;;;;;;25.27;18.00;;;;;;;;;;5126475;28;20461;-57
2021/06/24 05:52:29;;;;;;;25.97;19.47;;;;;;;;;;5113322;28;20546;-59
2021/06/24 05:55:00;;;;;;;21.73;18.90;;;;;;;;;;5115840;28;20613;-53
2021/06/24 05:57:30;;;;;;;25.80;18.90;;;;;;;;;;5118242;28;20434;-63
2021/06/24 05:59:59;;;;;;;23.00;19.40;;;;;;;;;;5119656;28;20445;-56
2021/06/24 06:02:34;;;;;;;23.77;19.00;;;;;;;;;;5128179;28;20521;-53
2021/06/24 06:08:06;;;;;;;24.03;18.43;;;;;;;;;;5105933;28;20441;-51
2021/06/24 06:13:57;;;;;;;24.73;18.87;;;;;;;;;;5136192;28;20958;-59
2021/06/24 06:16:41;;;;;;;26.13;19.00;;;;;;;;;;5124309;28;20492;-55
2021/06/24 06:19:13;;;;;;;26.03;21.33;;;;;;;;;;5139400;28;20462;-57
2021/06/24 06:21:41;;;;;;;26.10;20.30;;;;;;;;;;5117306;28;20498;-60
2021/06/24 06:24:08;;;;;;;25.90;20.07;;;;;;;;;;5117740;28;20476;-62
2021/06/24 06:26:48;;;;;;;29.27;20.23;;;;;;;;;;5118639;28;20470;-60
2021/06/24 06:29:17;;;;;;;27.83;19.33;;;;;;;;;;5116436;28;20486;-59
2021/06/24 06:31:44;;;;;;;27.60;20.77;;;;;;;;;;5117943;28;20458;-55
2021/06/24 06:34:22;;;;;;;27.73;19.20;;;;;;;;;;5117927;28;20478;-61
2021/06/24 06:36:50;;;;;;;23.60;19.73;;;;;;;;;;5117962;28;20434;-57
2021/06/24 06:39:25;;;;;;;20.37;17.53;;;;;;;;;;5117419;28;20431;-60
2021/06/24 06:41:52;;;;;;;25.47;18.87;;;;;;;;;;5117190;28;20458;-61
2021/06/24 06:44:20;;;;;;;24.03;20.30;;;;;;;;;;5117970;28;20455;-56
2021/06/24 06:46:48;;;;;;;24.83;20.23;;;;;;;;;;5117545;28;20527;-61
2021/06/24 06:49:19;;;;;;;27.30;19.67;;;;;;;;;;5098113;28;20543;-59
2021/06/24 06:51:49;;;;;;;28.27;19.63;;;;;;;;;;5112367;28;20463;-61
2021/06/24 06:54:26;;;;;;;24.10;19.77;;;;;;;;;;5113469;28;20466;-57
2021/06/24 06:57:30;;;;;;;29.23;19.20;;;;;;;;;;5118399;28;20657;-57
2021/06/24 06:59:57;;;;;;;25.93;20.40;;;;;;;;;;5117157;28;20459;-60
2021/06/24 07:02:27;;;;;;;25.93;21.70;;;;;;;;;;5117501;28;20467;-58
2021/06/24 07:05:16;;;;;;;28.03;21.90;;;;;;;;;;5117455;28;20436;-63
2021/06/24 07:07:53;;;;;;;24.57;20.77;;;;;;;;;;5116855;28;20471;-55
2021/06/24 07:10:24;;;;;;;26.53;21.20;;;;;;;;;;5115678;28;20451;-58
2021/06/24 07:12:51;;;;;;;21.67;18.13;;;;;;;;;;5116736;28;20513;-57
2021/06/24 07:15:38;;;;;;;22.77;19.67;;;;;;;;;;5117270;28;20475;-59
2021/06/24 07:20:52;;;;;;;22.87;19.03;;;;;;;;;;5093303;28;20448;-56
2021/06/24 07:23:33;;;;;;;22.40;19.97;;;;;;;;;;5096837;28;20456;-61
2021/06/24 07:26:09;;;;;;;21.00;18.50;;;;;;;;;;5096637;28;20456;-59
2021/06/24 07:28:40;;;;;;;24.43;18.30;;;;;;;;;;5097279;28;20439;-58
2021/06/24 07:31:09;;;;;;;22.00;17.73;;;;;;;;;;5096122;28;20532;-59
2021/06/24 07:33:37;;;;;;;26.10;21.17;;;;;;;;;;5095661;28;20483;-57
2021/06/24 07:36:20;;;;;;;20.17;18.07;;;;;;;;;;5091044;28;20536;-59
2021/06/24 07:39:05;;;;;;;24.17;20.10;;;;;;;;;;5092157;28;20464;-55
2021/06/24 07:41:37;;;;;;;25.40;19.20;;;;;;;;;;5077656;28;20461;-57
2021/06/24 07:44:12;;;;;;;24.57;19.37;;;;;;;;;;5094904;28;20498;-53
2021/06/24 07:46:40;;;;;;;27.20;20.07;;;;;;;;;;5089626;28;20465;-59
2021/06/24 07:49:10;;;;;;;24.00;19.50;;;;;;;;;;5084078;28;20491;-56
2021/06/24 07:51:37;;;;;;;24.50;20.87;;;;;;;;;;5106514;28;20447;-63
2021/06/24 07:54:06;;;;;;;26.63;18.93;;;;;;;;;;5084914;28;20524;-59
2021/06/24 07:56:34;;;;;;;25.23;20.60;;;;;;;;;;5093065;28;20578;-55
2021/06/24 07:59:19;;;;;;;24.90;19.60;;;;;;;;;;5093344;28;20444;-59
2021/06/24 08:01:47;;;;;;;23.37;20.20;;;;;;;;;;5095380;28;20479;-60
2021/06/24 08:04:15;;;;;;;28.10;21.67;;;;;;;;;;5092492;28;20464;-56
2021/06/24 08:06:52;;;;;;;26.47;20.83;;;;;;;;;;5088579;28;20532;-55
2021/06/24 08:09:20;;;;;;;32.60;20.70;;;;;;;;;;5077371;28;20445;-57
2021/06/24 08:11:48;;;;;;;29.80;20.07;;;;;;;;;;5095958;28;20466;-59
2021/06/24 08:14:23;;;;;;;28.10;20.10;;;;;;;;;;5113416;28;20480;-58
2021/06/24 08:16:51;;;;;;;26.07;19.70;;;;;;;;;;5115025;28;20491;-54
2021/06/24 08:19:19;;;;;;;23.70;20.33;;;;;;;;;;5096155;28;20479;-57
2021/06/24 08:21:57;;;;;;;23.50;19.53;;;;;;;;;;5098757;28;20458;-56
2021/06/24 08:24:28;;;;;;;25.93;20.77;;;;;;;;;;5112195;28;20466;-56
2021/06/24 08:27:04;;;;;;;23.57;18.90;;;;;;;;;;5088737;28;20449;-57
2021/06/24 08:29:59;;;;;;;24.30;19.47;;;;;;;;;;5095915;28;20424;-56
2021/06/24 08:32:32;;;;;;;23.13;19.37;;;;;;;;;;5115404;28;20467;-57
2021/06/24 08:35:02;;;;;;;21.40;18.73;;;;;;;;;;5097736;28;20467;-58
2021/06/24 08:37:30;;;;;;;23.07;17.60;;;;;;;;;;5096782;28;20492;-56
2021/06/24 08:39:59;;;;;;;23.00;19.10;;;;;;;;;;5114926;28;20485;-57
2021/06/24 08:42:26;;;;;;;30.33;16.93;;;;;;;;;;5115135;28;20435;-54
2021/06/24 08:44:53;;;;;;;21.00;18.80;;;;;;;;;;5115549;28;20494;-58
2021/06/24 08:47:21;;;;;;;23.63;17.60;;;;;;;;;;5115185;28;20469;-58
2021/06/24 08:49:51;;;;;;;27.93;18.83;;;;;;;;;;5115333;28;20443;-56
2021/06/24 08:52:20;;;;;;;20.73;16.90;;;;;;;;;;5107917;28;20475;-51
2021/06/24 08:55:03;;;;;;;18.70;15.83;;;;;;;;;;5095550;28;20448;-54
2021/06/24 08:57:33;;;;;;;20.90;16.53;;;;;;;;;;5092524;28;20450;-59
2021/06/24 09:00:01;;;;;;;25.57;17.40;;;;;;;;;;5094929;28;20443;-57
2021/06/24 09:02:38;;;;;;;23.80;17.57;;;;;;;;;;5095211;28;20452;-57
2021/06/24 09:05:06;;;;;;;24.50;17.30;;;;;;;;;;5095408;28;20444;-58
2021/06/24 09:07:47;;;;;;;23.70;18.23;;;;;;;;;;5094149;28;20640;-59
2021/06/24 09:13:27;;;;;;;20.93;16.83;;;;;;;;;;5113674;28;20464;-58
2021/06/24 09:15:54;;;;;;;20.40;15.77;;;;;;;;;;5114784;28;20501;-57
2021/06/24 09:18:25;;;;;;;18.90;16.47;;;;;;;;;;5114824;28;20459;-58
2021/06/24 09:20:55;;;;;;;21.90;17.10;;;;;;;;;;5115335;28;20476;-57
2021/06/24 09:23:24;;;;;;;17.53;15.77;;;;;;;;;;5114611;28;20443;-59
2021/06/24 09:26:08;;;;;;;17.83;15.43;;;;;;;;;;5115088;28;20510;-56
2021/06/24 09:28:42;;;;;;;17.37;15.30;;;;;;;;;;5110158;28;20451;-58
2021/06/24 09:34:13;;;;;;;17.97;13.93;;;;;;;;;;5118362;28;20417;-54
2021/06/24 09:36:56;;;;;;;22.07;16.90;;;;;;;;;;5118696;28;20915;-54
2021/06/24 09:39:33;;;;;;;24.60;13.50;;;;;;;;;;5117835;28;20483;-58
2021/06/24 09:42:07;;;;;;;16.90;14.40;;;;;;;;;;5102993;28;20451;-57
2021/06/24 09:44:55;;;;;;;16.13;13.43;;;;;;;;;;5118365;28;20463;-56
2021/06/24 09:47:26;;;;;;;15.70;12.70;;;;;;;;;;5118101;28;20438;-55
2021/06/24 09:49:58;;;;;;;17.83;14.47;;;;;;;;;;5118326;28;20455;-56
2021/06/24 09:52:31;;;;;;;23.60;13.83;;;;;;;;;;5118421;28;20420;-51
2021/06/24 09:55:06;;;;;;;19.47;14.67;;;;;;;;;;5111454;28;20689;-57
2021/06/24 09:57:33;;;;;;;15.87;13.17;;;;;;;;;;5098792;28;20477;-59
2021/06/24 10:00:16;;;;;;;17.23;13.13;;;;;;;;;;5097976;28;20451;-61
2021/06/24 10:02:58;;;;;;;19.03;13.70;;;;;;;;;;5092000;28;20439;-54
2021/06/24 10:05:44;;;;;;;16.17;13.40;;;;;;;;;;5097801;28;20452;-55
2021/06/24 10:08:13;;;;;;;15.30;11.60;;;;;;;;;;5098342;28;20471;-54
2021/06/24 10:10:42;;;;;;;18.90;13.73;;;;;;;;;;5094379;28;20437;-56
2021/06/24 10:13:29;;;;;;;14.50;12.40;;;;;;;;;;5077686;28;20464;-51
2021/06/24 10:15:58;;;;;;;18.90;12.87;;;;;;;;;;5077378;28;20475;-56
2021/06/24 10:18:27;;;;;;;19.60;14.80;;;;;;;;;;5093789;28;20492;-56
2021/06/24 10:21:14;;;;;;;13.90;11.83;;;;;;;;;;5097520;28;20479;-56
2021/06/24 10:23:53;;;;;;;16.10;13.53;;;;;;;;;;5078375;28;20528;-57
2021/06/24 10:26:39;;;;;;;17.37;13.27;;;;;;;;;;5079945;28;20453;-58
2021/06/24 10:29:14;;;;;;;17.63;14.17;;;;;;;;;;5098525;28;20482;-58
2021/06/24 10:31:43;;;;;;;20.07;14.53;;;;;;;;;;5091145;28;20498;-59
2021/06/24 10:34:43;;;;;;;14.90;12.10;;;;;;;;;;5098154;28;20440;-57
2021/06/24 10:37:15;;;;;;;16.60;13.00;;;;;;;;;;5091325;28;20488;-61
2021/06/24 10:39:42;;;;;;;16.60;13.27;;;;;;;;;;5096105;28;20440;-56
2021/06/24 10:42:19;;;;;;;15.13;12.73;;;;;;;;;;5116292;28;20511;-57
2021/06/24 10:45:06;;;;;;;14.37;12.03;;;;;;;;;;5118421;28;20463;-59
2021/06/24 10:47:59;;;;;;;15.20;12.10;;;;;;;;;;5102559;28;20425;-56
2021/06/24 10:50:39;;;;;;;15.40;11.80;;;;;;;;;;5094775;28;20493;-59
2021/06/24 10:53:25;;;;;;;18.00;13.20;;;;;;;;;;5117123;28;20479;-56
2021/06/24 10:55:54;;;;;;;17.67;12.57;;;;;;;;;;5117477;28;20483;-58
2021/06/24 10:58:35;;;;;;;16.17;13.03;;;;;;;;;;5110490;28;20499;-61
2021/06/24 11:01:04;;;;;;;12.80;9.27;;;;;;;;;;5117289;28;20512;-56
2021/06/24 11:03:40;;;;;;;17.03;10.03;;;;;;;;;;5117676;28;20434;-52
2021/06/24 11:09:15;;;;;;;15.13;11.53;;;;;;;;;;5115115;28;20450;-60
2021/06/24 11:11:48;;;;;;;14.33;10.47;;;;;;;;;;5117018;28;20481;-66
2021/06/24 11:14:17;;;;;;;14.90;10.50;;;;;;;;;;5115244;28;20462;-55
2021/06/24 11:16:45;;;;;;;15.87;11.20;;;;;;;;;;5117897;28;20602;-61
2021/06/24 11:19:14;;;;;;;16.43;10.20;;;;;;;;;;5117237;28;20486;-57
2021/06/24 11:21:56;;;;;;;11.63;9.90;;;;;;;;;;5113199;28;20467;-62
2021/06/24 11:24:25;;;;;;;12.63;9.47;;;;;;;;;;5116530;28;20510;-58
2021/06/24 11:26:56;;;;;;;14.20;8.93;;;;;;;;;;5116878;28;20428;-53
2021/06/24 11:29:27;;;;;;;13.90;9.00;;;;;;;;;;5116929;28;20460;-57
2021/06/24 11:31:58;;;;;;;12.60;9.77;;;;;;;;;;5116798;28;20463;-57
2021/06/24 11:34:59;;;;;;;19.77;9.30;;;;;;;;;;5117151;28;20535;-58
2021/06/24 11:37:34;;;;;;;9.30;7.50;;;;;;;;;;5080734;28;20511;-59
2021/06/24 11:40:03;;;;;;;14.40;9.20;;;;;;;;;;5096435;28;20467;-56
2021/06/24 11:42:33;;;;;;;9.57;7.77;;;;;;;;;;5096644;28;20455;-58
2021/06/24 11:45:02;;;;;;;14.40;9.27;;;;;;;;;;5094102;28;20445;-60
2021/06/24 11:47:45;;;;;;;11.40;8.73;;;;;;;;;;5090597;28;20433;-60
2021/06/24 12:04:59;;;;;;;10.23;7.53;;;;;;;;;;5082762;28;20407;-59
2021/06/24 12:10:33;;;;;;;9.67;5.93;;;;;;;;;;5092748;28;20422;-60
2021/06/24 12:13:06;;;;;;;9.53;5.50;;;;;;;;;;5109698;28;20456;-59
2021/06/24 12:16:03;;;;;;;8.27;5.27;;;;;;;;;;5116437;28;20455;-55
2021/06/24 12:18:36;;;;;;;8.60;5.53;;;;;;;;;;5115408;28;20459;-60
2021/06/24 12:21:08;;;;;;;12.27;5.67;;;;;;;;;;5098396;28;20462;-62
2021/06/24 12:23:43;;;;;;;10.33;6.03;;;;;;;;;;5116225;28;20550;-57
2021/06/24 12:26:11;;;;;;;7.47;4.50;;;;;;;;;;5099175;28;20476;-60
2021/06/24 12:28:38;;;;;;;9.90;5.37;;;;;;;;;;5094976;28;20454;-62
2021/06/24 12:31:19;;;;;;;8.20;5.47;;;;;;;;;;5103240;28;20754;-60
2021/06/24 12:34:06;;;;;;;9.23;5.60;;;;;;;;;;5094757;28;20494;-61
2021/06/24 12:36:41;;;;;;;10.80;5.17;;;;;;;;;;5095575;28;20491;-58
2021/06/24 12:39:14;;;;;;;13.33;5.77;;;;;;;;;;5094806;28;20451;-54
2021/06/24 12:41:45;;;;;;;8.37;5.57;;;;;;;;;;5094762;28;20452;-58
2021/06/24 12:44:12;;;;;;;9.27;5.90;;;;;;;;;;5094561;28;20491;-60
2021/06/24 12:46:40;;;;;;;8.40;6.00;;;;;;;;;;5094954;28;20436;-56
2021/06/24 12:49:31;;;;;;;8.83;5.40;;;;;;;;;;5095014;28;20444;-62
2021/06/24 12:52:10;;;;;;;10.53;6.23;;;;;;;;;;5080759;28;20512;-56
2021/06/24 12:54:41;;;;;;;9.23;6.10;;;;;;;;;;5055137;28;20434;-59
2021/06/24 12:57:30;;;;;;;12.23;6.10;;;;;;;;;;5055101;28;20478;-58
2021/06/24 12:59:59;;;;;;;9.57;5.70;;;;;;;;;;5055346;28;20521;-60
2021/06/24 13:02:27;;;;;;;8.67;5.40;;;;;;;;;;5057841;28;20458;-59
2021/06/24 13:04:58;;;;;;;8.97;5.53;;;;;;;;;;5054083;28;20426;-56
2021/06/24 13:07:27;;;;;;;14.93;6.87;;;;;;;;;;5061267;28;20449;-56
2021/06/24 13:09:56;;;;;;;11.57;7.00;;;;;;;;;;5068868;28;20462;-63
2021/06/24 13:12:28;;;;;;;12.00;7.90;;;;;;;;;;5059893;28;20473;-56
2021/06/24 13:14:56;;;;;;;13.00;8.20;;;;;;;;;;5054360;28;20473;-54
2021/06/24 13:17:25;;;;;;;12.43;6.13;;;;;;;;;;5062066;28;20479;-52
2021/06/24 13:19:54;;;;;;;10.17;7.40;;;;;;;;;;5074635;28;20449;-55
2021/06/24 13:22:29;;;;;;;11.43;7.57;;;;;;;;;;5066849;28;20446;-56
2021/06/24 13:28:06;;;;;;;15.43;8.33;;;;;;;;;;5055775;28;20452;-52
2021/06/24 13:30:54;;;;;;;10.73;6.40;;;;;;;;;;5074803;28;20453;-58
2021/06/24 13:36:33;;;;;;;11.03;8.07;;;;;;;;;;5099655;28;20490;-60
2021/06/24 13:41:55;;;;;;;13.87;7.70;;;;;;;;;;5094517;28;20490;-57
2021/06/24 13:44:26;;;;;;;10.50;8.53;;;;;;;;;;5094828;28;20492;-58
2021/06/24 13:46:54;;;;;;;10.87;8.60;;;;;;;;;;5094683;28;20439;-57
2021/06/24 13:49:36;;;;;;;14.27;9.40;;;;;;;;;;5094173;28;20456;-58
2021/06/24 13:52:05;;;;;;;14.73;9.30;;;;;;;;;;5097669;28;20515;-60
2021/06/24 13:54:34;;;;;;;13.60;8.67;;;;;;;;;;5115038;28;20461;-59
2021/06/24 13:57:20;;;;;;;12.83;8.53;;;;;;;;;;5113446;28;20479;-55
2021/06/24 13:59:51;;;;;;;12.60;8.40;;;;;;;;;;5114104;28;20451;-59
2021/06/24 14:02:36;;;;;;;14.00;7.93;;;;;;;;;;5114947;28;20427;-59
2021/06/24 14:05:16;;;;;;;10.13;7.10;;;;;;;;;;5108191;28;20507;-60
2021/06/24 14:08:03;;;;;;;8.77;7.03;;;;;;;;;;5082197;28;20459;-56
2021/06/24 14:10:57;;;;;;;12.97;8.37;;;;;;;;;;5094403;28;20452;-60
2021/06/24 14:13:27;;;;;;;13.63;6.97;;;;;;;;;;5094308;28;20449;-56
2021/06/24 14:15:59;;;;;;;10.67;7.50;;;;;;;;;;5095446;28;20444;-58
2021/06/24 14:21:30;;;;;;;8.53;6.20;;;;;;;;;;5097373;28;20434;-54
2021/06/24 14:24:00;;;;;;;10.00;6.60;;;;;;;;;;5097654;28;20444;-58
2021/06/24 14:26:43;;;;;;;10.77;5.63;;;;;;;;;;5097266;28;20471;-58
2021/06/24 14:29:13;;;;;;;7.60;5.43;;;;;;;;;;5088526;28;20524;-61
2021/06/24 14:31:54;;;;;;;12.40;6.47;;;;;;;;;;5096438;28;20497;-59
2021/06/24 14:37:31;;;;;;;14.63;6.20;;;;;;;;;;5079392;28;20555;-54
2021/06/24 14:40:01;;;;;;;7.77;4.83;;;;;;;;;;5077731;28;20453;-57
2021/06/24 14:42:58;;;;;;;8.97;5.30;;;;;;;;;;5077528;28;20463;-57
2021/06/24 14:45:33;;;;;;;8.93;5.37;;;;;;;;;;5110204;28;20486;-56
2021/06/24 14:48:06;;;;;;;13.13;7.10;;;;;;;;;;5117583;28;20472;-56
2021/06/24 14:50:40;;;;;;;11.20;5.47;;;;;;;;;;5118311;28;20459;-63
2021/06/24 14:53:12;;;;;;;12.17;6.67;;;;;;;;;;5114826;28;20495;-57
2021/06/24 14:55:40;;;;;;;9.83;7.03;;;;;;;;;;5115812;28;20490;-56
2021/06/24 14:58:11;;;;;;;11.47;6.87;;;;;;;;;;5116999;28;20513;-55
2021/06/24 15:00:42;;;;;;;11.87;7.27;;;;;;;;;;5117669;28;20452;-60
2021/06/24 15:03:10;;;;;;;10.53;6.73;;;;;;;;;;5115223;28;20439;-56
2021/06/24 15:05:45;;;;;;;8.47;5.90;;;;;;;;;;5117642;28;20455;-55
2021/06/24 15:08:13;;;;;;;13.90;7.40;;;;;;;;;;5117230;28;20855;-57
2021/06/24 15:10:40;;;;;;;9.90;5.60;;;;;;;;;;5116506;28;20439;-56
2021/06/24 15:16:13;;;;;;;9.80;6.50;;;;;;;;;;5098550;28;20506;-58
2021/06/24 15:18:40;;;;;;;9.97;7.30;;;;;;;;;;5096245;28;20521;-58
2021/06/24 15:21:09;;;;;;;10.30;7.80;;;;;;;;;;5096759;28;20450;-52
2021/06/24 15:23:36;;;;;;;8.87;5.17;;;;;;;;;;5097139;28;20464;-59
2021/06/24 15:26:06;;;;;;;9.23;5.83;;;;;;;;;;5099934;28;20508;-59
2021/06/24 15:28:59;;;;;;;10.50;6.40;;;;;;;;;;5094546;28;20520;-57
2021/06/24 15:31:28;;;;;;;7.80;5.13;;;;;;;;;;5096034;28;20470;-52
2021/06/24 15:33:55;;;;;;;13.47;5.97;;;;;;;;;;5099921;28;20476;-56
2021/06/24 15:36:47;;;;;;;11.27;6.77;;;;;;;;;;5095690;28;20519;-59
2021/06/24 15:39:23;;;;;;;7.93;5.20;;;;;;;;;;5090998;28;20493;-61
2021/06/24 15:42:04;;;;;;;10.47;4.67;;;;;;;;;;5095648;28;20529;-59
2021/06/24 15:44:34;;;;;;;8.70;6.30;;;;;;;;;;5092150;28;20523;-59
2021/06/24 15:47:25;;;;;;;8.23;5.90;;;;;;;;;;5096744;28;20440;-56
2021/06/24 15:49:54;;;;;;;11.50;6.20;;;;;;;;;;5090462;28;20457;-59
2021/06/24 15:52:22;;;;;;;7.70;5.17;;;;;;;;;;5085994;28;20428;-56
2021/06/24 15:55:15;;;;;;;10.13;5.83;;;;;;;;;;5081420;28;20434;-55
2021/06/24 15:57:44;;;;;;;9.90;5.50;;;;;;;;;;5091601;28;20484;-56
2021/06/24 16:00:15;;;;;;;7.20;4.60;;;;;;;;;;5077054;28;20468;-58
2021/06/24 16:06:11;;;;;;;10.30;6.27;;;;;;;;;;5084236;28;20415;-54
2021/06/24 16:08:41;;;;;;;7.43;4.77;;;;;;;;;;5088461;28;20504;-55
2021/06/24 16:11:08;;;;;;;12.17;5.40;;;;;;;;;;5096849;28;20467;-56
2021/06/24 16:13:36;;;;;;;12.17;5.70;;;;;;;;;;5114458;28;20481;-51